createdAt,value
2019-05-17T00:00:23.233Z,11.50
2019-05-17T00:02:57.150Z,11.40
2019-05-17T00:05:27.353Z,11.40
2019-05-17T00:07:59.231Z,11.30
2019-05-17T00:10:29.648Z,11.30
2019-05-17T00:13:01.628Z,11.30
2019-05-17T00:15:32.001Z,11.30
2019-05-17T00:18:02.434Z,11.20
2019-05-17T00:20:34.288Z,11.20
2019-05-17T00:23:07.110Z,11.20
2019-05-17T00:25:37.766Z,11.10
2019-05-17T00:28:08.180Z,11.10
2019-05-17T00:30:38.633Z,11.00
2019-05-17T00:33:09.288Z,11.00
2019-05-17T00:35:39.666Z,11.00
2019-05-17T00:38:11.643Z,10.90
2019-05-17T00:40:42.038Z,10.90
2019-05-17T00:43:12.445Z,10.90
2019-05-17T00:45:42.817Z,10.80
2019-05-17T00:48:13.372Z,10.80
2019-05-17T00:50:43.777Z,10.80
2019-05-17T00:53:16.266Z,10.70
2019-05-17T00:55:46.701Z,10.70
2019-05-17T00:58:18.707Z,10.70
2019-05-17T01:00:49.196Z,10.70
2019-05-17T01:03:21.084Z,10.70
2019-05-17T01:05:51.551Z,10.60
2019-05-17T01:08:22.026Z,10.60
2019-05-17T01:10:54.002Z,10.60
2019-05-17T01:13:26.558Z,10.50
2019-05-17T01:15:56.761Z,10.50
2019-05-17T01:18:27.516Z,10.50
2019-05-17T01:20:57.985Z,10.50
2019-05-17T01:23:29.228Z,10.50
2019-05-17T01:25:59.645Z,10.50
2019-05-17T01:28:30.100Z,10.50
2019-05-17T01:31:00.471Z,10.50
2019-05-17T01:33:30.998Z,10.50
2019-05-17T01:36:01.381Z,10.40
2019-05-17T01:38:31.870Z,10.40
2019-05-17T01:41:02.335Z,10.40
2019-05-17T01:43:32.872Z,10.40
2019-05-17T01:46:03.378Z,10.40
2019-05-17T01:48:33.788Z,10.40
2019-05-17T01:51:04.176Z,10.40
2019-05-17T01:53:36.460Z,10.40
2019-05-17T01:56:08.153Z,10.40
2019-05-17T01:58:38.578Z,10.40
2019-05-17T02:01:08.966Z,10.40
2019-05-17T02:03:39.369Z,10.40
2019-05-17T02:06:09.834Z,10.40
2019-05-17T02:08:40.323Z,10.40
2019-05-17T02:11:10.785Z,10.40
2019-05-17T02:13:41.191Z,10.40
2019-05-17T02:16:11.823Z,10.40
2019-05-17T02:18:43.806Z,10.30
2019-05-17T02:21:16.671Z,10.30
2019-05-17T02:23:46.944Z,10.30
2019-05-17T02:26:18.952Z,10.30
2019-05-17T02:28:49.467Z,10.30
2019-05-17T02:31:20.678Z,10.30
2019-05-17T02:33:53.477Z,10.20
2019-05-17T02:36:23.505Z,10.30
2019-05-17T02:38:54.006Z,10.20
2019-05-17T02:41:24.518Z,10.20
2019-05-17T02:43:54.989Z,10.30
2019-05-17T02:46:25.464Z,10.20
2019-05-17T02:48:55.919Z,10.30
2019-05-17T02:51:26.528Z,10.30
2019-05-17T02:53:56.901Z,10.30
2019-05-17T02:56:27.558Z,10.30
2019-05-17T02:58:57.995Z,10.30
2019-05-17T03:01:28.493Z,10.20
2019-05-17T03:03:58.981Z,10.20
2019-05-17T03:06:32.897Z,10.20
2019-05-17T03:09:03.657Z,10.20
2019-05-17T03:11:34.148Z,10.10
2019-05-17T03:14:04.562Z,10.10
2019-05-17T03:16:36.497Z,10.20
2019-05-17T03:19:06.889Z,10.20
2019-05-17T03:21:37.274Z,10.20
2019-05-17T03:24:07.686Z,10.20
2019-05-17T03:26:38.043Z,10.20
2019-05-17T03:29:08.441Z,10.20
2019-05-17T03:31:44.536Z,10.20
2019-05-17T03:34:16.767Z,10.20
2019-05-17T03:36:46.899Z,10.20
2019-05-17T03:39:16.256Z,10.30
2019-05-17T03:41:46.627Z,10.30
2019-05-17T03:44:17.074Z,10.30
2019-05-17T03:46:47.451Z,10.40
2019-05-17T03:49:18.029Z,10.40
2019-05-17T03:51:48.477Z,10.50
2019-05-17T03:54:22.650Z,10.60
2019-05-17T03:56:55.399Z,10.70
2019-05-17T03:59:27.462Z,10.90
2019-05-17T04:01:57.914Z,10.90
2019-05-17T04:04:28.328Z,11.00
2019-05-17T04:07:03.151Z,10.90
2019-05-17T04:09:32.859Z,10.90
2019-05-17T04:12:04.932Z,10.80
2019-05-17T04:14:35.352Z,10.70
2019-05-17T04:17:05.832Z,10.70
2019-05-17T04:19:36.305Z,10.60
2019-05-17T04:22:06.687Z,10.50
2019-05-17T04:24:37.162Z,10.40
2019-05-17T04:27:07.573Z,10.50
2019-05-17T04:29:42.422Z,10.60
2019-05-17T04:32:12.991Z,10.60
2019-05-17T04:34:43.890Z,10.60
2019-05-17T04:37:14.472Z,10.60
2019-05-17T04:39:44.952Z,10.50
2019-05-17T04:42:15.460Z,10.50
2019-05-17T04:44:45.955Z,10.50
2019-05-17T04:47:16.414Z,10.60
2019-05-17T04:49:47.420Z,10.90
2019-05-17T04:52:17.943Z,10.90
2019-05-17T04:54:48.393Z,11.10
2019-05-17T04:57:18.792Z,11.20
2019-05-17T04:59:49.161Z,11.30
2019-05-17T05:02:23.617Z,11.30
2019-05-17T05:04:53.531Z,11.40
2019-05-17T05:07:24.088Z,11.70
2019-05-17T05:09:54.545Z,11.90
2019-05-17T05:12:26.432Z,12.10
2019-05-17T05:14:56.900Z,12.30
2019-05-17T05:17:27.362Z,12.50
2019-05-17T05:20:02.516Z,12.90
2019-05-17T05:22:33.089Z,12.90
2019-05-17T05:25:04.839Z,12.90
2019-05-17T05:27:35.261Z,12.80
2019-05-17T05:30:07.240Z,12.80
2019-05-17T05:32:37.672Z,13.10
2019-05-17T05:35:08.043Z,13.30
2019-05-17T05:37:38.614Z,13.50
2019-05-17T05:40:12.608Z,13.60
2019-05-17T05:42:42.998Z,13.80
2019-05-17T05:45:14.728Z,14.10
2019-05-17T05:47:45.137Z,14.30
2019-05-17T05:50:17.724Z,14.40
2019-05-17T05:52:48.229Z,14.80
2019-05-17T05:55:18.618Z,15.40
2019-05-17T05:57:49.120Z,16.10
2019-05-17T06:00:21.975Z,17.60
2019-05-17T06:02:52.313Z,20.30
2019-05-17T06:05:22.789Z,21.10
2019-05-17T06:07:53.278Z,21.30
2019-05-17T06:10:23.649Z,21.70
2019-05-17T06:12:55.579Z,21.50
2019-05-17T06:15:26.012Z,21.40
2019-05-17T06:17:56.393Z,21.70
2019-05-17T06:20:28.299Z,21.20
2019-05-17T06:22:58.678Z,20.90
2019-05-17T06:25:29.142Z,21.10
2019-05-17T06:28:01.431Z,23.10
2019-05-17T06:30:32.368Z,24.90
2019-05-17T06:33:02.871Z,26.50
2019-05-17T06:35:33.353Z,27.30
2019-05-17T06:38:04.598Z,28.40
2019-05-17T06:40:34.974Z,30.10
2019-05-17T06:43:05.397Z,30.90
2019-05-17T06:45:35.782Z,32.20
2019-05-17T06:48:06.191Z,32.20
2019-05-17T06:50:36.578Z,30.20
2019-05-17T06:53:06.989Z,30.10
2019-05-17T06:55:37.368Z,31.10
2019-05-17T06:58:07.778Z,32.60
2019-05-17T07:00:40.257Z,34.50
2019-05-17T07:03:10.245Z,35.60
2019-05-17T07:05:42.193Z,35.60
2019-05-17T07:08:12.627Z,35.40
2019-05-17T07:10:43.012Z,35.10
2019-05-17T07:13:14.885Z,33.50
2019-05-17T07:15:47.914Z,33.20
2019-05-17T07:18:19.462Z,31.90
2019-05-17T07:20:50.188Z,31.40
2019-05-17T07:23:20.786Z,30.70
2019-05-17T07:25:51.183Z,31.00
2019-05-17T07:28:21.665Z,29.70
2019-05-17T07:30:52.174Z,28.30
2019-05-17T07:33:22.549Z,27.40
2019-05-17T07:35:52.934Z,28.40
2019-05-17T07:38:23.387Z,29.20
2019-05-17T07:40:53.764Z,31.20
2019-05-17T07:43:24.164Z,31.40
2019-05-17T07:45:54.596Z,28.90
2019-05-17T07:48:25.002Z,26.20
2019-05-17T07:50:55.383Z,24.20
2019-05-17T07:53:25.842Z,22.60
2019-05-17T07:55:56.212Z,21.30
2019-05-17T07:58:26.628Z,20.50
2019-05-17T08:00:57.049Z,19.80
2019-05-17T08:03:29.720Z,19.00
2019-05-17T08:06:00.112Z,18.80
2019-05-17T08:08:31.368Z,18.90
2019-05-17T08:11:02.084Z,19.40
2019-05-17T08:13:33.812Z,19.80
2019-05-17T08:16:04.382Z,20.20
2019-05-17T08:18:34.879Z,20.30
2019-05-17T08:21:05.344Z,19.90
2019-05-17T08:23:40.075Z,19.70
2019-05-17T08:26:10.744Z,19.70
2019-05-17T08:28:41.315Z,19.50
2019-05-17T08:31:11.818Z,19.50
2019-05-17T08:33:43.679Z,19.50
2019-05-17T08:38:44.106Z,19.00
2019-05-17T08:43:47.014Z,18.60
2019-05-17T08:46:16.596Z,18.50
2019-05-17T08:48:49.385Z,19.00
2019-05-17T08:51:19.753Z,19.70
2019-05-17T08:53:50.285Z,21.10
2019-05-17T08:56:20.693Z,21.70
2019-05-17T08:58:51.164Z,22.00
2019-05-17T09:01:21.549Z,22.00
2019-05-17T09:03:52.112Z,21.60
2019-05-17T09:06:24.036Z,21.50
2019-05-17T09:08:54.530Z,21.10
2019-05-17T09:11:24.966Z,20.60
2019-05-17T09:13:58.444Z,20.20
2019-05-17T09:16:27.473Z,20.00
2019-05-17T09:19:00.324Z,19.90
2019-05-17T09:21:31.283Z,20.00
2019-05-17T09:24:02.823Z,20.40
2019-05-17T09:26:33.230Z,20.30
2019-05-17T09:29:05.339Z,20.10
2019-05-17T09:31:35.782Z,20.20
2019-05-17T09:34:06.177Z,20.20
2019-05-17T09:36:36.598Z,20.20
2019-05-17T09:39:09.470Z,20.10
2019-05-17T09:41:40.071Z,20.10
2019-05-17T09:44:15.924Z,20.00
2019-05-17T09:46:42.907Z,20.20
2019-05-17T09:49:13.411Z,20.20
2019-05-17T09:51:43.821Z,19.90
2019-05-17T09:54:14.254Z,20.00
2019-05-17T09:56:44.664Z,20.10
2019-05-17T09:59:15.114Z,20.00
2019-05-17T10:01:45.480Z,19.80
2019-05-17T10:04:15.933Z,19.40
2019-05-17T10:06:46.409Z,19.10
2019-05-17T10:09:19.483Z,19.00
2019-05-17T10:11:49.298Z,19.30
2019-05-17T10:14:27.718Z,19.20
2019-05-17T10:16:51.873Z,19.10
2019-05-17T10:19:23.620Z,19.00
2019-05-17T10:21:54.157Z,18.90
2019-05-17T10:24:35.973Z,18.90
2019-05-17T10:26:56.637Z,19.10
2019-05-17T10:29:27.038Z,19.00
2019-05-17T10:31:59.728Z,19.30
2019-05-17T10:34:29.536Z,19.40
2019-05-17T10:36:59.913Z,19.30
2019-05-17T10:39:30.314Z,19.20
2019-05-17T10:42:00.708Z,19.20
2019-05-17T10:44:43.068Z,19.00
2019-05-17T10:47:03.254Z,18.80
2019-05-17T10:49:33.668Z,18.70
2019-05-17T10:52:05.543Z,18.50
2019-05-17T10:54:35.915Z,18.30
2019-05-17T10:57:06.317Z,18.20
2019-05-17T10:59:36.685Z,18.10
2019-05-17T11:02:07.291Z,18.10
2019-05-17T11:04:40.212Z,18.10
2019-05-17T11:07:10.779Z,18.20
2019-05-17T11:09:41.269Z,18.30
2019-05-17T11:12:11.723Z,18.40
2019-05-17T11:14:50.703Z,18.60
2019-05-17T11:17:14.203Z,18.90
2019-05-17T11:19:46.040Z,19.10
2019-05-17T11:22:19.446Z,19.60
2019-05-17T11:24:49.830Z,19.80
2019-05-17T11:27:20.236Z,19.60
2019-05-17T11:29:50.713Z,19.40
2019-05-17T11:32:21.260Z,19.20
2019-05-17T11:34:51.671Z,19.30
2019-05-17T11:37:23.698Z,19.50
2019-05-17T11:39:54.304Z,19.40
2019-05-17T11:42:24.723Z,19.60
2019-05-17T11:44:55.187Z,19.60
2019-05-17T11:47:27.086Z,19.50
2019-05-17T11:49:57.515Z,19.60
2019-05-17T11:52:27.887Z,19.50
2019-05-17T11:54:59.810Z,19.60
2019-05-17T11:57:30.184Z,19.90
2019-05-17T12:00:00.573Z,20.30
2019-05-17T12:02:30.977Z,20.50
2019-05-17T12:05:02.893Z,20.40
2019-05-17T12:07:33.369Z,20.30
2019-05-17T12:10:07.178Z,20.40
2019-05-17T12:12:37.598Z,20.20
2019-05-17T12:15:09.254Z,20.10
2019-05-17T12:17:39.749Z,20.40
2019-05-17T12:20:10.438Z,20.20
2019-05-17T12:22:40.832Z,20.20
2019-05-17T12:25:14.152Z,20.20
2019-05-17T12:27:44.617Z,20.30
2019-05-17T12:30:15.436Z,20.10
2019-05-17T12:32:47.512Z,19.70
2019-05-17T12:35:19.534Z,19.50
2019-05-17T12:37:49.988Z,19.70
2019-05-17T12:40:20.514Z,20.10
2019-05-17T12:42:51.149Z,20.20
2019-05-17T12:45:22.989Z,19.60
2019-05-17T12:47:53.631Z,19.20
2019-05-17T12:50:24.146Z,19.00
2019-05-17T12:52:54.598Z,18.70
2019-05-17T12:55:25.029Z,18.70
2019-05-17T12:57:56.918Z,18.90
2019-05-17T13:00:27.378Z,18.90
2019-05-17T13:02:57.769Z,18.80
2019-05-17T13:05:28.262Z,18.70
2019-05-17T13:07:58.623Z,18.90
2019-05-17T13:10:29.164Z,18.70
2019-05-17T13:12:59.543Z,18.70
2019-05-17T13:15:29.967Z,19.00
2019-05-17T13:18:01.276Z,19.00
2019-05-17T13:20:31.815Z,19.10
2019-05-17T13:23:02.230Z,19.50
2019-05-17T13:25:34.171Z,19.50
2019-05-17T13:28:04.598Z,19.60
2019-05-17T13:30:36.481Z,19.50
2019-05-17T13:33:06.847Z,19.00
2019-05-17T13:35:37.365Z,18.60
2019-05-17T13:38:07.741Z,18.40
2019-05-17T13:40:39.851Z,18.40
2019-05-17T13:43:10.251Z,18.50
2019-05-17T13:45:43.704Z,18.60
2019-05-17T13:48:12.814Z,18.40
2019-05-17T13:50:43.325Z,18.10
2019-05-17T13:53:14.635Z,17.90
2019-05-17T13:55:45.091Z,17.70
2019-05-17T13:58:15.526Z,17.60
2019-05-17T14:00:45.998Z,17.60
2019-05-17T14:03:16.466Z,17.50
2019-05-17T14:05:46.961Z,17.30
2019-05-17T14:08:18.889Z,17.20
2019-05-17T14:10:49.479Z,17.10
2019-05-17T14:13:19.865Z,17.20
2019-05-17T14:15:50.338Z,17.10
2019-05-17T14:18:20.703Z,17.00
2019-05-17T14:20:51.226Z,16.90
2019-05-17T14:23:21.669Z,16.90
2019-05-17T14:25:52.083Z,16.90
2019-05-17T14:28:22.550Z,17.00
2019-05-17T14:30:53.024Z,17.40
2019-05-17T14:33:23.421Z,18.00
2019-05-17T14:35:53.894Z,18.40
2019-05-17T14:38:24.367Z,18.80
2019-05-17T14:41:10.171Z,18.90
2019-05-17T14:43:26.950Z,18.60
2019-05-17T14:45:57.365Z,18.50
2019-05-17T14:48:29.201Z,18.60
2019-05-17T14:50:59.610Z,18.60
2019-05-17T14:53:30.013Z,18.40
2019-05-17T14:56:01.279Z,18.50
2019-05-17T14:58:31.666Z,18.60
2019-05-17T15:01:02.114Z,18.60
2019-05-17T15:03:32.572Z,18.50
2019-05-17T15:06:03.035Z,18.40
2019-05-17T15:08:33.430Z,18.40
2019-05-17T15:11:03.899Z,18.50
2019-05-17T15:13:34.377Z,18.50
2019-05-17T15:16:05.499Z,18.60
2019-05-17T15:18:35.861Z,18.80
2019-05-17T15:21:07.135Z,19.00
2019-05-17T15:23:37.522Z,18.90
2019-05-17T15:26:07.948Z,18.90
2019-05-17T15:28:38.415Z,19.00
2019-05-17T15:31:08.907Z,19.00
2019-05-17T15:33:39.566Z,19.00
2019-05-17T15:36:10.066Z,18.80
2019-05-17T15:38:41.900Z,18.70
2019-05-17T15:41:12.306Z,18.70
2019-05-17T15:43:44.144Z,18.80
2019-05-17T15:46:14.552Z,18.70
2019-05-17T15:48:44.922Z,18.80
2019-05-17T15:51:15.341Z,18.60
2019-05-17T15:53:45.716Z,18.60
2019-05-17T15:56:16.132Z,18.60
2019-05-17T15:58:46.510Z,18.60
2019-05-17T16:01:16.963Z,18.50
2019-05-17T16:03:47.421Z,18.50
2019-05-17T16:06:17.945Z,18.40
2019-05-17T16:08:48.511Z,18.50
2019-05-17T16:11:18.914Z,18.60
2019-05-17T16:13:49.592Z,18.60
2019-05-17T16:16:21.674Z,18.50
2019-05-17T16:18:52.125Z,18.30
2019-05-17T16:21:24.324Z,18.30
2019-05-17T16:23:54.717Z,18.30
2019-05-17T16:26:25.253Z,18.30
2019-05-17T16:28:55.630Z,18.20
2019-05-17T16:31:26.029Z,18.00
2019-05-17T16:33:56.489Z,17.90
2019-05-17T16:36:27.144Z,17.80
2019-05-17T16:38:57.525Z,17.70
2019-05-17T16:41:29.503Z,17.60
2019-05-17T16:43:59.865Z,17.60
2019-05-17T16:46:30.301Z,17.60
2019-05-17T16:49:00.741Z,17.60
2019-05-17T16:51:31.214Z,17.70
2019-05-17T16:54:01.595Z,17.70
2019-05-17T16:56:33.576Z,17.70
2019-05-17T16:59:05.622Z,17.50
2019-05-17T17:01:36.026Z,17.50
2019-05-17T17:04:06.535Z,17.30
2019-05-17T17:06:37.229Z,17.30
2019-05-17T17:09:09.069Z,17.30
2019-05-17T17:11:39.584Z,17.30
2019-05-17T17:14:09.950Z,17.30
2019-05-17T17:16:41.881Z,17.30
2019-05-17T17:19:12.286Z,17.20
2019-05-17T17:21:42.699Z,17.20
2019-05-17T17:24:13.187Z,17.20
2019-05-17T17:26:43.633Z,17.00
2019-05-17T17:29:14.043Z,16.90
2019-05-17T17:31:44.407Z,16.90
2019-05-17T17:34:14.901Z,16.90
2019-05-17T17:36:45.317Z,16.90
2019-05-17T17:39:15.725Z,16.90
2019-05-17T17:41:46.134Z,16.80
2019-05-17T17:44:19.492Z,16.80
2019-05-17T17:46:49.946Z,16.70
2019-05-17T17:49:20.346Z,16.70
2019-05-17T17:51:52.343Z,16.60
2019-05-17T17:54:22.778Z,16.70
2019-05-17T17:56:54.763Z,16.70
2019-05-17T17:59:25.129Z,16.70
2019-05-17T18:01:55.528Z,16.70
2019-05-17T18:04:26.767Z,16.60
2019-05-17T18:06:57.214Z,16.50
2019-05-17T18:09:27.683Z,16.40
2019-05-17T18:11:58.097Z,16.40
2019-05-17T18:14:29.942Z,16.40
2019-05-17T18:17:00.382Z,16.30
2019-05-17T18:19:30.881Z,16.20
2019-05-17T18:22:02.221Z,16.10
2019-05-17T18:24:32.617Z,16.00
2019-05-17T18:27:03.098Z,16.00
2019-05-17T18:29:35.112Z,16.00
2019-05-17T18:32:07.069Z,16.00
2019-05-17T18:34:37.484Z,16.10
2019-05-17T18:37:09.345Z,16.10
2019-05-17T18:39:39.797Z,16.00
2019-05-17T18:42:10.255Z,15.90
2019-05-17T18:44:40.643Z,15.90
2019-05-17T18:47:11.059Z,15.80
2019-05-17T18:49:42.277Z,15.80
2019-05-17T18:52:12.849Z,15.80
2019-05-17T18:54:43.223Z,15.70
2019-05-17T18:57:13.630Z,15.70
2019-05-17T18:59:44.033Z,15.60
2019-05-17T19:02:14.423Z,15.50
2019-05-17T19:04:46.322Z,15.30
2019-05-17T19:07:16.692Z,15.20
2019-05-17T19:09:47.219Z,15.20
2019-05-17T19:12:17.672Z,15.10
2019-05-17T19:14:48.099Z,15.10
2019-05-17T19:17:18.480Z,15.00
2019-05-17T19:19:48.905Z,15.00
2019-05-17T19:22:19.283Z,15.00
2019-05-17T19:24:49.667Z,14.90
2019-05-17T19:27:20.894Z,14.90
2019-05-17T19:29:51.253Z,15.00
2019-05-17T19:32:21.675Z,15.00
2019-05-17T19:34:52.091Z,15.00
2019-05-17T19:37:22.507Z,15.00
2019-05-17T19:39:52.949Z,15.00
2019-05-17T19:42:23.504Z,15.00
2019-05-17T19:44:59.086Z,14.90
2019-05-17T19:47:26.044Z,14.80
2019-05-17T19:49:56.528Z,14.70
2019-05-17T19:52:27.088Z,14.80
2019-05-17T19:54:57.574Z,14.80
2019-05-17T19:57:31.099Z,14.90
2019-05-17T20:00:01.618Z,15.00
2019-05-17T20:02:32.126Z,15.00
2019-05-17T20:05:02.562Z,15.10
2019-05-17T20:07:37.911Z,15.10
2019-05-17T20:10:08.979Z,15.10
2019-05-17T20:12:39.495Z,15.10
2019-05-17T20:15:17.200Z,15.00
2019-05-17T20:17:43.189Z,14.90
2019-05-17T20:20:14.172Z,14.90
2019-05-17T20:22:44.582Z,14.70
2019-05-17T20:25:17.214Z,14.60
2019-05-17T20:27:47.610Z,14.50
2019-05-17T20:30:19.697Z,14.50
2019-05-17T20:32:50.086Z,14.40
2019-05-17T20:35:20.461Z,14.40
2019-05-17T20:37:50.867Z,14.50
2019-05-17T20:40:21.353Z,14.40
2019-05-17T20:42:51.747Z,14.30
2019-05-17T20:45:32.743Z,14.20
2019-05-17T20:47:55.758Z,14.10
2019-05-17T20:50:26.155Z,14.00
2019-05-17T20:52:56.600Z,14.00
2019-05-17T20:55:27.463Z,13.80
2019-05-17T20:57:57.951Z,13.70
2019-05-17T21:00:29.145Z,13.70
2019-05-17T21:02:59.565Z,13.70
2019-05-17T21:05:29.963Z,13.60
2019-05-17T21:08:00.365Z,13.60
2019-05-17T21:10:30.826Z,13.50
2019-05-17T21:13:02.181Z,13.50
2019-05-17T21:15:45.739Z,13.50
2019-05-17T21:18:04.722Z,13.40
2019-05-17T21:20:35.167Z,13.30
2019-05-17T21:23:05.597Z,13.20
2019-05-17T21:25:37.555Z,13.20
2019-05-17T21:28:07.977Z,13.20
2019-05-17T21:30:38.553Z,13.20
2019-05-17T21:33:09.138Z,13.10
2019-05-17T21:35:39.581Z,13.00
2019-05-17T21:38:09.997Z,13.00
2019-05-17T21:40:40.455Z,13.00
2019-05-17T21:43:10.948Z,13.00
2019-05-17T21:45:43.013Z,12.90
2019-05-17T21:48:14.897Z,12.90
2019-05-17T21:50:45.395Z,12.90
2019-05-17T21:53:17.491Z,12.90
2019-05-17T21:55:47.918Z,12.80
2019-05-17T21:58:20.434Z,12.80
2019-05-17T22:01:14.542Z,12.70
2019-05-17T22:03:45.092Z,12.80
2019-05-17T22:06:15.504Z,12.70
2019-05-17T22:08:46.898Z,12.60
2019-05-17T22:11:18.803Z,12.60
2019-05-17T22:13:49.288Z,12.60
2019-05-17T22:16:21.154Z,12.50
2019-05-17T22:18:51.579Z,12.50
2019-05-17T22:21:21.981Z,12.50
2019-05-17T22:23:53.831Z,12.50
2019-05-17T22:26:24.251Z,12.40
2019-05-17T22:28:54.639Z,12.40
2019-05-17T22:31:25.176Z,12.30
2019-05-17T22:33:55.671Z,12.20
2019-05-17T22:36:26.160Z,12.20
2019-05-17T22:38:58.115Z,12.10
2019-05-17T22:41:28.539Z,12.10
2019-05-17T22:43:58.913Z,12.10
2019-05-17T22:46:36.092Z,12.00
2019-05-17T22:49:01.418Z,11.90
2019-05-17T22:51:31.806Z,11.90
2019-05-17T22:54:02.317Z,11.80
2019-05-17T22:56:34.158Z,11.80
2019-05-17T22:59:04.599Z,11.80
2019-05-17T23:01:35.001Z,11.70
2019-05-17T23:04:05.385Z,11.70
2019-05-17T23:06:35.825Z,11.60
2019-05-17T23:09:06.732Z,11.60
2019-05-17T23:11:37.124Z,11.60
2019-05-17T23:14:07.577Z,11.60
2019-05-17T23:16:50.488Z,11.60
2019-05-17T23:19:13.829Z,11.60
2019-05-17T23:21:44.270Z,11.60
2019-05-17T23:24:16.162Z,11.50
2019-05-17T23:26:46.605Z,11.60
2019-05-17T23:29:17.020Z,11.50
2019-05-17T23:31:48.969Z,11.50
2019-05-17T23:34:19.387Z,11.50
2019-05-17T23:36:49.854Z,11.40
2019-05-17T23:39:20.337Z,11.50
2019-05-17T23:41:50.708Z,11.50
2019-05-17T23:44:21.180Z,11.40
2019-05-17T23:47:06.051Z,11.40
2019-05-17T23:49:23.989Z,11.40
2019-05-17T23:51:54.428Z,11.40
2019-05-17T23:54:26.270Z,11.30
2019-05-17T23:56:56.682Z,11.30
2019-05-17T23:59:27.069Z,11.30
